Time;durP1;ratioP1;P1;durP2;ratioP2;P2;SDS_P1;SDS_P2;PMS_P1;PMS_P2;Temp;Humidity;BMP_temperature;BMP_pressure;BME280_temperature;BME280_humidity;BME280_pressure;Samples;Min_cycle;Max_cycle;Signal;HPM_P1;HPM_P2
2022/02/11 00:01:42;;;;;;;3.22;1.92;;;;;;;;;;6183819;23;20024;-83
2022/02/11 00:04:24;;;;;;;5.07;2.03;;;;;;;;;;6215548;23;20027;-83
2022/02/11 00:06:56;;;;;;;6.55;1.92;;;;;;;;;;6214818;23;20020;-83
2022/02/11 00:09:22;;;;;;;3.78;1.40;;;;;;;;;;6182473;23;20077;-83
2022/02/11 00:11:48;;;;;;;3.35;1.63;;;;;;;;;;6203521;22;20004;-83
2022/02/11 00:14:13;;;;;;;5.90;1.83;;;;;;;;;;6187708;23;20538;-83
2022/02/11 00:16:40;;;;;;;2.38;1.58;;;;;;;;;;6189683;22;20087;-83
2022/02/11 00:19:06;;;;;;;3.60;1.50;;;;;;;;;;6161189;23;20405;-83
2022/02/11 00:21:33;;;;;;;5.35;1.50;;;;;;;;;;6181129;23;20018;-83
2022/02/11 00:24:00;;;;;;;1.98;1.10;;;;;;;;;;6162406;23;20043;-83
2022/02/11 00:26:36;;;;;;;3.25;1.48;;;;;;;;;;6186149;23;20080;-83
2022/02/11 00:30:07;;;;;;;3.58;1.25;;;;;;;;;;6214709;23;20028;-83
2022/02/11 00:34:47;;;;;;;3.42;1.40;;;;;;;;;;6210293;23;20020;-83
2022/02/11 00:37:23;;;;;;;2.67;1.42;;;;;;;;;;6213494;23;20066;-83
2022/02/11 00:40:13;;;;;;;6.45;1.75;;;;;;;;;;6214587;23;20385;-83
2022/02/11 00:43:34;;;;;;;4.95;1.52;;;;;;;;;;6194377;23;20365;-83
2022/02/11 00:46:02;;;;;;;2.25;1.15;;;;;;;;;;6219570;23;20119;-83
2022/02/11 01:02:19;;;;;;;4.70;1.60;;;;;;;;;;6187055;23;20079;-83
2022/02/11 01:04:46;;;;;;;3.03;1.83;;;;;;;;;;6198900;23;20219;-83
2022/02/11 01:07:11;;;;;;;3.00;2.10;;;;;;;;;;6208021;23;20035;-83
2022/02/11 01:09:39;;;;;;;4.72;2.10;;;;;;;;;;6157228;23;20458;-83
2022/02/11 01:12:06;;;;;;;4.93;1.90;;;;;;;;;;6159212;23;20025;-83
2022/02/11 01:14:36;;;;;;;3.78;2.13;;;;;;;;;;6184702;23;20020;-83
2022/02/11 01:17:23;;;;;;;6.13;2.38;;;;;;;;;;6184703;23;20024;-83
2022/02/11 01:19:57;;;;;;;4.18;2.08;;;;;;;;;;6215799;23;20502;-83
2022/02/11 01:52:11;;;;;;;3.65;3.08;;;;;;;;;;6194352;22;20021;-83
2022/02/11 02:00:26;;;;;;;5.68;3.50;;;;;;;;;;6231515;23;20343;-83
2022/02/11 02:03:15;;;;;;;5.10;3.88;;;;;;;;;;6187549;23;20009;-83
2022/02/11 02:17:20;;;;;;;9.13;4.57;;;;;;;;;;6183920;23;20462;-83
2022/02/11 02:27:36;;;;;;;7.90;4.22;;;;;;;;;;6189911;23;20258;-83
2022/02/11 03:48:34;;;;;;;9.48;3.17;;;;;;;;;;6189275;22;20115;-83
2022/02/11 03:49:28;;;;;;;9.32;2.38;;;;;;;;;;6217466;23;20471;-85
2022/02/11 03:57:47;;;;;;;14.30;2.78;;;;;;;;;;6216526;23;20027;-83
2022/02/11 04:08:26;;;;;;;13.63;3.70;;;;;;;;;;6191080;23;20024;-83
2022/02/11 04:22:20;;;;;;;10.30;2.63;;;;;;;;;;6186629;23;20027;-83
2022/02/11 04:28:26;;;;;;;10.98;2.53;;;;;;;;;;6182672;23;20047;-83
2022/02/11 05:00:31;;;;;;;11.48;4.72;;;;;;;;;;6115188;23;20483;-83
2022/02/11 05:02:57;;;;;;;14.05;4.93;;;;;;;;;;6090219;23;20030;-83
2022/02/11 05:05:23;;;;;;;9.38;5.50;;;;;;;;;;6143370;23;20020;-83
2022/02/11 05:07:49;;;;;;;9.80;5.03;;;;;;;;;;6185975;23;20016;-83
2022/02/11 05:10:16;;;;;;;13.63;5.85;;;;;;;;;;6186153;23;20119;-83
2022/02/11 05:12:42;;;;;;;12.13;5.43;;;;;;;;;;6160287;23;20016;-83
2022/02/11 05:15:10;;;;;;;10.73;6.10;;;;;;;;;;6175033;22;20103;-83
2022/02/11 05:17:37;;;;;;;14.68;6.30;;;;;;;;;;6157158;23;20498;-83
2022/02/11 05:20:04;;;;;;;10.75;6.35;;;;;;;;;;6193599;23;20032;-83
2022/02/11 05:22:30;;;;;;;11.68;7.03;;;;;;;;;;6179777;23;20159;-83
2022/02/11 05:24:56;;;;;;;13.95;6.97;;;;;;;;;;6181296;23;20020;-83
2022/02/11 05:27:22;;;;;;;13.57;7.25;;;;;;;;;;6183540;23;20059;-83
2022/02/11 05:29:47;;;;;;;12.45;8.05;;;;;;;;;;6207789;23;20051;-83
2022/02/11 05:32:13;;;;;;;13.45;7.68;;;;;;;;;;6208586;23;20052;-83
2022/02/11 05:34:39;;;;;;;16.55;8.40;;;;;;;;;;6208417;23;20079;-83
2022/02/11 05:37:04;;;;;;;13.73;8.38;;;;;;;;;;6209132;23;20028;-83
2022/02/11 05:39:30;;;;;;;16.63;9.00;;;;;;;;;;6211835;23;20016;-83
2022/02/11 05:41:56;;;;;;;14.35;10.07;;;;;;;;;;6185075;23;20069;-83
2022/02/11 05:44:21;;;;;;;19.88;10.27;;;;;;;;;;6206631;23;20122;-84
2022/02/11 05:46:47;;;;;;;20.65;10.40;;;;;;;;;;6180131;23;20016;-83
2022/02/11 05:49:13;;;;;;;17.58;10.10;;;;;;;;;;6158376;23;20024;-83
2022/02/11 05:51:38;;;;;;;18.67;10.00;;;;;;;;;;6157354;23;20394;-83
2022/02/11 05:54:04;;;;;;;18.00;9.60;;;;;;;;;;6158178;23;20528;-83
2022/02/11 05:56:30;;;;;;;16.02;8.50;;;;;;;;;;6182616;23;20016;-83
2022/02/11 05:58:55;;;;;;;16.63;8.85;;;;;;;;;;6182407;23;20040;-84
2022/02/11 06:01:21;;;;;;;16.23;8.68;;;;;;;;;;6157587;23;20024;-84
2022/02/11 06:03:47;;;;;;;16.50;7.70;;;;;;;;;;6183223;23;20346;-83
2022/02/11 06:06:13;;;;;;;14.57;8.77;;;;;;;;;;6182697;23;20029;-83
2022/02/11 06:08:38;;;;;;;15.82;9.13;;;;;;;;;;6157571;23;20096;-83
2022/02/11 06:11:05;;;;;;;13.82;8.60;;;;;;;;;;6184068;23;20067;-83
2022/02/11 06:13:30;;;;;;;16.85;10.35;;;;;;;;;;6182182;23;20041;-84
2022/02/11 06:15:56;;;;;;;19.50;9.38;;;;;;;;;;6182816;23;20020;-83
2022/02/11 06:18:22;;;;;;;16.63;9.18;;;;;;;;;;6158231;23;20037;-83
2022/02/11 06:20:48;;;;;;;15.48;9.63;;;;;;;;;;6182656;23;20012;-83
2022/02/11 06:23:14;;;;;;;17.58;9.93;;;;;;;;;;6162620;23;20055;-83
2022/02/11 06:25:40;;;;;;;16.40;9.90;;;;;;;;;;6187037;23;20096;-83
2022/02/11 06:28:06;;;;;;;19.00;8.90;;;;;;;;;;6161946;23;20028;-83
2022/02/11 06:30:32;;;;;;;13.50;9.00;;;;;;;;;;6190412;23;20020;-83
2022/02/11 06:32:57;;;;;;;16.30;8.65;;;;;;;;;;6189012;23;20546;-83
2022/02/11 06:35:25;;;;;;;11.43;8.55;;;;;;;;;;6183775;23;20098;-83
2022/02/11 06:37:50;;;;;;;17.35;8.40;;;;;;;;;;6165473;23;20024;-83
2022/02/11 06:40:16;;;;;;;16.08;8.60;;;;;;;;;;6220914;22;20091;-83
2022/02/11 06:42:43;;;;;;;17.60;8.55;;;;;;;;;;6209262;23;20016;-83
2022/02/11 06:45:09;;;;;;;15.57;9.65;;;;;;;;;;6214011;23;20046;-83
2022/02/11 06:47:35;;;;;;;17.25;10.38;;;;;;;;;;6187600;23;20016;-83
2022/02/11 06:50:01;;;;;;;12.73;8.70;;;;;;;;;;6213099;23;20012;-84
2022/02/11 06:52:26;;;;;;;16.40;8.98;;;;;;;;;;6217277;23;20016;-83
2022/02/11 06:54:52;;;;;;;14.70;8.60;;;;;;;;;;6189546;23;20047;-83
2022/02/11 06:57:18;;;;;;;13.75;7.72;;;;;;;;;;6189230;23;20027;-83
2022/02/11 06:59:44;;;;;;;13.77;8.70;;;;;;;;;;6191262;23;20020;-83
2022/02/11 07:02:18;;;;;;;14.85;8.77;;;;;;;;;;6191893;23;20024;-83
2022/02/11 07:04:44;;;;;;;16.42;9.05;;;;;;;;;;6215686;23;20026;-83
2022/02/11 07:07:10;;;;;;;21.27;9.38;;;;;;;;;;6191411;23;20020;-83
2022/02/11 07:09:36;;;;;;;16.30;8.70;;;;;;;;;;6190580;23;20016;-83
2022/02/11 07:12:01;;;;;;;15.35;7.97;;;;;;;;;;6217181;23;20035;-83
2022/02/11 07:14:27;;;;;;;16.48;8.68;;;;;;;;;;6190560;23;21031;-83
2022/02/11 07:16:54;;;;;;;14.20;8.23;;;;;;;;;;6190892;23;20401;-83
2022/02/11 07:19:20;;;;;;;14.02;8.63;;;;;;;;;;6198848;23;20024;-83
2022/02/11 07:22:34;;;;;;;19.27;8.82;;;;;;;;;;6197908;23;20035;-83
2022/02/11 07:25:03;;;;;;;17.67;8.68;;;;;;;;;;6254495;23;20038;-83
2022/02/11 07:27:28;;;;;;;15.85;7.95;;;;;;;;;;6200200;23;20476;-83
2022/02/11 07:29:55;;;;;;;8.73;5.50;;;;;;;;;;6222972;23;20020;-83
2022/02/11 07:32:21;;;;;;;11.18;5.57;;;;;;;;;;6185733;23;20487;-84
2022/02/11 07:34:47;;;;;;;10.85;5.32;;;;;;;;;;6194072;23;20020;-83
2022/02/11 07:37:13;;;;;;;6.57;4.53;;;;;;;;;;6198383;23;20028;-84
2022/02/11 07:39:39;;;;;;;9.57;5.40;;;;;;;;;;6191140;23;20019;-83
2022/02/11 07:42:05;;;;;;;10.15;4.97;;;;;;;;;;6195158;22;20020;-82
2022/02/11 07:44:30;;;;;;;10.63;5.47;;;;;;;;;;6194675;23;20099;-83
2022/02/11 07:46:56;;;;;;;7.78;3.17;;;;;;;;;;6194689;23;20073;-83
2022/02/11 07:49:22;;;;;;;7.55;2.85;;;;;;;;;;6191907;23;20083;-83
2022/02/11 07:51:48;;;;;;;7.35;2.60;;;;;;;;;;6219294;23;20046;-84
2022/02/11 07:54:13;;;;;;;8.10;2.95;;;;;;;;;;6192558;23;20266;-83
2022/02/11 07:56:39;;;;;;;7.28;2.53;;;;;;;;;;6218201;23;20297;-83
2022/02/11 07:59:05;;;;;;;6.88;2.60;;;;;;;;;;6217740;23;20052;-83
2022/02/11 08:01:31;;;;;;;13.25;2.72;;;;;;;;;;6193061;23;20096;-83
2022/02/11 08:03:57;;;;;;;5.10;2.50;;;;;;;;;;6191612;23;20027;-83
2022/02/11 08:06:22;;;;;;;4.35;2.55;;;;;;;;;;6192834;23;20031;-83
2022/02/11 08:08:48;;;;;;;8.10;3.22;;;;;;;;;;6214804;23;20050;-83
2022/02/11 08:11:14;;;;;;;7.65;3.25;;;;;;;;;;6215217;23;20102;-82
2022/02/11 08:13:40;;;;;;;8.18;2.97;;;;;;;;;;6189773;23;20074;-82
2022/02/11 08:16:06;;;;;;;4.78;2.88;;;;;;;;;;6187971;23;20024;-82
2022/02/11 08:18:33;;;;;;;7.95;3.20;;;;;;;;;;6188282;23;20478;-83
2022/02/11 08:20:58;;;;;;;6.10;2.90;;;;;;;;;;6189423;23;20095;-82
2022/02/11 08:23:25;;;;;;;6.28;2.90;;;;;;;;;;6189269;23;20031;-83
2022/02/11 08:25:51;;;;;;;8.10;3.40;;;;;;;;;;6190159;23;20385;-82
2022/02/11 08:28:17;;;;;;;7.30;3.30;;;;;;;;;;6216138;23;20035;-84
2022/02/11 08:30:44;;;;;;;6.18;3.53;;;;;;;;;;6219289;23;20024;-83
2022/02/11 08:33:10;;;;;;;5.03;2.78;;;;;;;;;;6193064;23;20016;-84
2022/02/11 08:35:36;;;;;;;5.35;2.83;;;;;;;;;;6218675;23;20034;-84
2022/02/11 08:38:02;;;;;;;6.35;2.60;;;;;;;;;;6218436;23;20362;-82
2022/02/11 08:40:28;;;;;;;5.07;1.88;;;;;;;;;;6192573;23;20020;-84
2022/02/11 08:42:54;;;;;;;8.27;2.40;;;;;;;;;;6191542;23;20020;-83
2022/02/11 08:45:19;;;;;;;7.82;2.42;;;;;;;;;;6191921;23;20020;-83
2022/02/11 08:47:45;;;;;;;7.53;2.70;;;;;;;;;;6191902;23;20016;-83
2022/02/11 08:50:18;;;;;;;5.13;3.00;;;;;;;;;;6191725;23;20465;-83
2022/02/11 08:52:44;;;;;;;5.75;3.03;;;;;;;;;;6193411;23;20028;-83
2022/02/11 08:55:09;;;;;;;6.20;3.42;;;;;;;;;;6190572;23;20016;-82
2022/02/11 08:57:43;;;;;;;8.52;4.38;;;;;;;;;;6191325;23;20024;-83
2022/02/11 09:00:10;;;;;;;10.88;4.15;;;;;;;;;;6194510;23;20042;-83
2022/02/11 09:02:36;;;;;;;11.80;3.65;;;;;;;;;;6194800;23;20576;-83
2022/02/11 09:05:02;;;;;;;8.98;4.78;;;;;;;;;;6218537;23;20236;-83
2022/02/11 09:07:27;;;;;;;7.18;3.88;;;;;;;;;;6191335;23;20224;-83
2022/02/11 09:09:53;;;;;;;7.53;5.22;;;;;;;;;;6191771;23;20016;-83
2022/02/11 09:12:19;;;;;;;10.52;4.28;;;;;;;;;;6192696;23;20082;-83
2022/02/11 09:14:45;;;;;;;8.20;3.58;;;;;;;;;;6193644;23;20024;-84
2022/02/11 09:17:10;;;;;;;7.20;4.43;;;;;;;;;;6192813;23;20020;-83
2022/02/11 09:19:36;;;;;;;5.97;4.05;;;;;;;;;;6194257;23;20000;-83
2022/02/11 09:22:02;;;;;;;7.65;4.07;;;;;;;;;;6221282;23;20035;-84
2022/02/11 09:24:28;;;;;;;7.50;3.55;;;;;;;;;;6195674;23;20043;-83
2022/02/11 09:26:53;;;;;;;7.43;3.38;;;;;;;;;;6221105;23;20019;-84
2022/02/11 09:29:19;;;;;;;6.65;3.97;;;;;;;;;;6192224;23;20265;-84
2022/02/11 09:31:45;;;;;;;6.43;3.60;;;;;;;;;;6191974;23;20023;-83
2022/02/11 09:34:12;;;;;;;7.53;3.72;;;;;;;;;;6217113;23;20028;-81
2022/02/11 09:36:39;;;;;;;11.20;3.55;;;;;;;;;;6189315;23;20024;-82
2022/02/11 09:39:07;;;;;;;7.53;3.53;;;;;;;;;;6191047;23;20331;-82
2022/02/11 09:41:34;;;;;;;9.32;3.63;;;;;;;;;;6234043;22;20103;-84
2022/02/11 09:44:28;;;;;;;;;;;;;;;;;;;;;
2022/02/11 09:46:55;;;;;;;4.85;3.20;;;;;;;;;;6194378;23;21491;-82
2022/02/11 09:49:22;;;;;;;8.95;4.07;;;;;;;;;;6183451;22;20039;-84
2022/02/11 09:51:53;;;;;;;7.93;3.28;;;;;;;;;;6160475;23;20044;-84
2022/02/11 09:54:22;;;;;;;8.55;3.13;;;;;;;;;;6199352;23;20024;-84
2022/02/11 09:56:50;;;;;;;7.22;3.58;;;;;;;;;;6210220;23;20091;-84
2022/02/11 09:59:16;;;;;;;5.13;3.63;;;;;;;;;;6214229;23;20050;-85
2022/02/11 10:01:42;;;;;;;7.40;3.95;;;;;;;;;;6214249;23;20019;-82
2022/02/11 10:04:19;;;;;;;9.00;4.22;;;;;;;;;;6212348;23;20091;-83
2022/02/11 10:06:48;;;;;;;6.50;4.10;;;;;;;;;;6186085;23;20269;-83
2022/02/11 10:09:15;;;;;;;8.18;3.83;;;;;;;;;;6212318;23;20046;-83
2022/02/11 10:11:43;;;;;;;7.10;3.95;;;;;;;;;;6187087;23;20050;-83
2022/02/11 10:14:34;;;;;;;10.98;5.07;;;;;;;;;;6187615;23;20052;-82
2022/02/11 10:17:02;;;;;;;13.00;5.90;;;;;;;;;;6189614;23;20472;-83
2022/02/11 10:19:38;;;;;;;8.40;5.15;;;;;;;;;;6187673;23;20028;-83
2022/02/11 10:22:19;;;;;;;9.63;5.38;;;;;;;;;;6169002;23;20072;-83
2022/02/11 10:24:45;;;;;;;8.35;5.70;;;;;;;;;;6161457;23;20017;-82
2022/02/11 10:27:15;;;;;;;9.90;6.03;;;;;;;;;;6233449;22;20830;-83
2022/02/11 10:29:42;;;;;;;11.10;5.85;;;;;;;;;;6155108;23;20065;-83
2022/02/11 10:32:07;;;;;;;12.10;6.30;;;;;;;;;;6181953;23;20468;-82
2022/02/11 10:34:33;;;;;;;8.55;5.80;;;;;;;;;;6181559;23;20025;-83
2022/02/11 10:37:07;;;;;;;10.57;5.70;;;;;;;;;;6158098;23;20104;-83
2022/02/11 10:39:36;;;;;;;10.57;5.35;;;;;;;;;;6204864;23;20025;-83
2022/02/11 10:42:08;;;;;;;8.05;5.07;;;;;;;;;;6180951;23;20025;-82
2022/02/11 10:44:39;;;;;;;7.47;4.47;;;;;;;;;;6180170;23;20095;-82
2022/02/11 10:47:08;;;;;;;8.18;5.40;;;;;;;;;;6233553;22;20400;-85
2022/02/11 10:49:42;;;;;;;11.30;5.88;;;;;;;;;;6164712;23;20394;-83
2022/02/11 10:52:35;;;;;;;8.48;5.22;;;;;;;;;;6191508;23;20540;-84
2022/02/11 10:55:01;;;;;;;9.13;4.82;;;;;;;;;;6189305;23;20425;-83
2022/02/11 10:57:31;;;;;;;9.45;4.28;;;;;;;;;;6187282;22;20024;-84
2022/02/11 10:59:58;;;;;;;8.32;4.30;;;;;;;;;;6163650;23;20016;-84
2022/02/11 11:02:24;;;;;;;7.85;4.15;;;;;;;;;;6170899;23;20024;-83
2022/02/11 11:04:52;;;;;;;7.47;3.67;;;;;;;;;;6204485;23;20031;-84
2022/02/11 11:07:29;;;;;;;7.05;3.90;;;;;;;;;;6205644;23;20179;-83
2022/02/11 11:09:59;;;;;;;7.07;3.55;;;;;;;;;;6182963;23;20017;-84
2022/02/11 11:12:31;;;;;;;7.30;3.63;;;;;;;;;;6172553;23;20033;-84
2022/02/11 11:15:05;;;;;;;6.90;3.63;;;;;;;;;;6127725;23;20016;-85
2022/02/11 11:17:44;;;;;;;6.25;3.22;;;;;;;;;;6135081;23;20014;-84
2022/02/11 11:20:23;;;;;;;8.23;3.63;;;;;;;;;;6116127;23;20104;-84
2022/02/11 11:23:01;;;;;;;5.13;2.90;;;;;;;;;;6152811;23;20013;-83
2022/02/11 11:26:19;;;;;;;6.00;3.40;;;;;;;;;;6165942;23;20034;-83
2022/02/11 11:28:50;;;;;;;5.82;3.15;;;;;;;;;;6155825;23;20091;-83
2022/02/11 11:31:28;;;;;;;10.52;3.53;;;;;;;;;;6165448;23;20008;-83
2022/02/11 11:34:20;;;;;;;5.55;3.28;;;;;;;;;;6192451;23;20020;-84
2022/02/11 11:36:47;;;;;;;8.52;3.95;;;;;;;;;;6202052;23;20480;-83
2022/02/11 11:39:13;;;;;;;8.25;3.60;;;;;;;;;;6154175;23;20020;-84
2022/02/11 11:41:39;;;;;;;6.85;3.78;;;;;;;;;;6180690;23;20514;-85
2022/02/11 11:44:19;;;;;;;7.57;3.92;;;;;;;;;;6200034;23;20052;-86
2022/02/11 11:46:52;;;;;;;4.93;3.95;;;;;;;;;;6205419;23;20060;-86
2022/02/11 11:49:25;;;;;;;8.48;3.95;;;;;;;;;;6182763;23;20080;-84
2022/02/11 11:51:51;;;;;;;6.97;3.75;;;;;;;;;;6231823;23;20017;-85
2022/02/11 11:54:22;;;;;;;7.63;3.33;;;;;;;;;;6192041;23;20027;-83
2022/02/11 11:57:01;;;;;;;11.07;5.32;;;;;;;;;;6181161;23;20387;-84
2022/02/11 11:59:37;;;;;;;4.57;3.08;;;;;;;;;;6181133;23;20021;-83
2022/02/11 12:02:08;;;;;;;8.93;6.13;;;;;;;;;;6178939;23;20020;-83
2022/02/11 12:04:40;;;;;;;5.97;3.75;;;;;;;;;;6229672;22;20075;-83
2022/02/11 12:07:17;;;;;;;8.25;4.07;;;;;;;;;;6206043;23;20108;-84
2022/02/11 12:09:45;;;;;;;8.38;3.97;;;;;;;;;;6203739;23;20027;-84
2022/02/11 12:12:12;;;;;;;8.27;3.78;;;;;;;;;;6181633;23;20020;-84
2022/02/11 12:14:40;;;;;;;7.22;3.90;;;;;;;;;;6145745;23;20023;-83
2022/02/11 12:17:11;;;;;;;6.20;4.32;;;;;;;;;;6202165;23;20021;-84
2022/02/11 12:19:38;;;;;;;7.00;3.95;;;;;;;;;;6206218;23;20099;-84
2022/02/11 12:22:08;;;;;;;4.32;3.90;;;;;;;;;;6203472;23;20051;-84
2022/02/11 12:27:31;;;;;;;6.53;3.88;;;;;;;;;;6205134;23;20027;-83
2022/02/11 12:29:58;;;;;;;6.32;4.00;;;;;;;;;;6204159;23;20027;-82
2022/02/11 12:32:45;;;;;;;6.25;4.20;;;;;;;;;;6204084;23;20025;-84
2022/02/11 12:35:29;;;;;;;5.43;4.47;;;;;;;;;;6207003;23;20063;-83
2022/02/11 12:37:57;;;;;;;6.05;3.67;;;;;;;;;;6207128;23;20040;-84
2022/02/11 12:41:00;;;;;;;4.20;2.80;;;;;;;;;;6179747;23;20020;-83
2022/02/11 12:43:29;;;;;;;2.90;2.70;;;;;;;;;;6183125;23;20024;-83
2022/02/11 12:45:56;;;;;;;4.95;3.20;;;;;;;;;;6182746;23;20024;-84
2022/02/11 12:48:29;;;;;;;4.05;2.65;;;;;;;;;;6206497;23;20044;-83
2022/02/11 12:50:55;;;;;;;3.25;3.00;;;;;;;;;;6206332;23;20112;-83
2022/02/11 12:53:22;;;;;;;3.25;2.65;;;;;;;;;;6157860;23;20028;-83
2022/02/11 12:55:52;;;;;;;3.13;2.83;;;;;;;;;;6176766;22;20397;-83
2022/02/11 12:58:19;;;;;;;2.17;1.70;;;;;;;;;;6156432;23;20023;-83
2022/02/11 13:00:47;;;;;;;2.22;2.00;;;;;;;;;;6175623;22;20071;-83
2022/02/11 13:03:15;;;;;;;2.20;2.00;;;;;;;;;;6156996;23;20425;-83
2022/02/11 13:05:48;;;;;;;2.10;1.90;;;;;;;;;;6193448;23;20044;-85
2022/02/11 13:08:24;;;;;;;2.47;2.00;;;;;;;;;;6200084;23;20480;-83
2022/02/11 13:11:05;;;;;;;2.38;2.03;;;;;;;;;;6204724;23;20036;-83
2022/02/11 13:13:32;;;;;;;2.13;1.88;;;;;;;;;;6203900;23;20017;-83
2022/02/11 13:15:58;;;;;;;2.33;1.70;;;;;;;;;;6230928;23;20518;-84
2022/02/11 13:18:26;;;;;;;2.90;1.90;;;;;;;;;;6203952;23;20028;-84
2022/02/11 13:20:55;;;;;;;2.70;2.03;;;;;;;;;;6205322;23;20046;-84
2022/02/11 13:23:23;;;;;;;1.85;1.75;;;;;;;;;;6206302;23;20071;-84
2022/02/11 13:25:50;;;;;;;2.17;1.83;;;;;;;;;;6205583;23;20012;-84
2022/02/11 13:28:17;;;;;;;1.48;1.38;;;;;;;;;;6204941;23;20020;-83
2022/02/11 13:30:48;;;;;;;1.77;1.67;;;;;;;;;;6204504;22;20836;-83
2022/02/11 13:33:24;;;;;;;2.85;2.00;;;;;;;;;;6139224;23;20028;-83
2022/02/11 13:35:51;;;;;;;3.08;2.08;;;;;;;;;;6168782;23;20017;-84
2022/02/11 13:38:22;;;;;;;4.13;2.20;;;;;;;;;;6174550;23;20024;-84
2022/02/11 13:40:58;;;;;;;2.60;2.00;;;;;;;;;;6153560;23;20180;-83
2022/02/11 13:43:27;;;;;;;2.78;2.47;;;;;;;;;;6191617;22;20021;-83
2022/02/11 13:45:55;;;;;;;2.83;2.63;;;;;;;;;;6155094;23;20487;-83
2022/02/11 13:48:23;;;;;;;2.60;2.38;;;;;;;;;;6186666;23;20095;-84
2022/02/11 13:51:05;;;;;;;2.85;2.50;;;;;;;;;;6211731;22;20089;-83
2022/02/11 13:53:47;;;;;;;2.85;2.35;;;;;;;;;;6232561;23;20091;-82
2022/02/11 13:56:19;;;;;;;4.93;3.85;;;;;;;;;;6184066;23;20301;-82
2022/02/11 13:59:06;;;;;;;3.70;3.03;;;;;;;;;;6185737;23;20062;-84
2022/02/11 14:01:34;;;;;;;3.42;3.13;;;;;;;;;;6180828;23;20016;-84
2022/02/11 14:04:01;;;;;;;3.40;3.10;;;;;;;;;;6211043;23;20481;-84
2022/02/11 14:06:28;;;;;;;2.80;2.60;;;;;;;;;;6187825;23;20016;-84
2022/02/11 14:08:55;;;;;;;3.72;3.42;;;;;;;;;;6168149;23;20012;-84
2022/02/11 14:11:20;;;;;;;4.72;3.25;;;;;;;;;;6178157;23;20297;-85
2022/02/11 14:13:48;;;;;;;3.78;3.22;;;;;;;;;;6213241;23;20043;-84
2022/02/11 14:16:14;;;;;;;4.65;3.45;;;;;;;;;;6186367;23;20036;-84
2022/02/11 14:18:42;;;;;;;3.70;3.40;;;;;;;;;;6184231;23;20036;-84
2022/02/11 14:21:11;;;;;;;4.60;3.65;;;;;;;;;;6210095;23;20024;-85
2022/02/11 14:23:37;;;;;;;4.32;3.90;;;;;;;;;;6187133;23;20024;-86
2022/02/11 14:26:03;;;;;;;4.40;3.38;;;;;;;;;;6209708;23;20074;-84
2022/02/11 14:28:30;;;;;;;4.50;3.78;;;;;;;;;;6212141;23;20020;-84
2022/02/11 14:30:56;;;;;;;5.05;3.88;;;;;;;;;;6187902;23;20035;-84
2022/02/11 14:33:22;;;;;;;4.28;3.88;;;;;;;;;;6185007;23;20020;-84
2022/02/11 14:35:48;;;;;;;3.42;3.13;;;;;;;;;;6187879;23;20026;-84
2022/02/11 14:38:14;;;;;;;3.67;2.88;;;;;;;;;;6189118;23;20039;-84
2022/02/11 14:41:45;;;;;;;4.13;3.17;;;;;;;;;;6214101;23;20350;-84
2022/02/11 14:43:26;;;;;;;3.83;3.17;;;;;;;;;;6218218;23;20016;-84
2022/02/11 14:45:51;;;;;;;3.85;3.30;;;;;;;;;;6213738;23;20012;-84
2022/02/11 14:48:17;;;;;;;3.53;3.22;;;;;;;;;;6214821;23;20024;-84
2022/02/11 14:50:43;;;;;;;3.42;3.00;;;;;;;;;;6214804;22;20380;-84
2022/02/11 14:53:10;;;;;;;4.28;2.95;;;;;;;;;;6190944;23;20521;-85
2022/02/11 14:55:36;;;;;;;3.47;3.13;;;;;;;;;;6189006;23;20016;-85
2022/02/11 14:58:02;;;;;;;3.03;2.83;;;;;;;;;;6215318;23;20476;-84
2022/02/11 15:00:29;;;;;;;4.20;3.50;;;;;;;;;;6214875;23;20016;-84
2022/02/11 15:02:55;;;;;;;4.53;4.05;;;;;;;;;;6190425;23;20092;-84
2022/02/11 15:05:21;;;;;;;3.78;3.42;;;;;;;;;;6190432;23;20083;-84
2022/02/11 15:07:48;;;;;;;4.20;3.67;;;;;;;;;;6189770;23;20035;-84
2022/02/11 15:10:14;;;;;;;4.43;3.70;;;;;;;;;;6213760;23;20087;-84
2022/02/11 15:12:40;;;;;;;4.05;3.55;;;;;;;;;;6215235;23;20398;-84
2022/02/11 15:15:06;;;;;;;4.05;3.75;;;;;;;;;;6214951;23;20016;-84
2022/02/11 15:17:32;;;;;;;4.53;3.70;;;;;;;;;;6213676;23;20036;-84
2022/02/11 15:19:58;;;;;;;4.22;3.80;;;;;;;;;;6188651;23;20031;-85
2022/02/11 15:22:23;;;;;;;4.30;3.90;;;;;;;;;;6208971;23;20026;-84
2022/02/11 15:24:51;;;;;;;3.92;3.58;;;;;;;;;;6187888;23;20070;-85
2022/02/11 15:27:17;;;;;;;4.85;4.20;;;;;;;;;;6186633;23;20027;-85
2022/02/11 15:29:44;;;;;;;4.47;4.07;;;;;;;;;;6154288;23;20341;-85
2022/02/11 15:32:10;;;;;;;5.32;4.10;;;;;;;;;;6181383;23;20043;-85
2022/02/11 15:34:37;;;;;;;4.55;4.15;;;;;;;;;;6186087;23;20127;-85
2022/02/11 15:37:04;;;;;;;4.93;4.45;;;;;;;;;;6178142;23;20078;-85
2022/02/11 15:39:30;;;;;;;8.13;5.68;;;;;;;;;;6180213;23;20021;-85
2022/02/11 15:41:55;;;;;;;6.13;5.53;;;;;;;;;;6160343;23;20103;-85
2022/02/11 15:44:23;;;;;;;9.48;7.78;;;;;;;;;;6192155;23;20016;-88
2022/02/11 15:46:48;;;;;;;12.57;9.00;;;;;;;;;;6157678;23;20017;-85
2022/02/11 15:49:14;;;;;;;15.13;11.77;;;;;;;;;;6171804;23;20536;-84
2022/02/11 15:51:40;;;;;;;12.70;9.63;;;;;;;;;;6181826;23;20078;-85
2022/02/11 15:54:05;;;;;;;14.02;9.18;;;;;;;;;;6178717;23;20013;-85
2022/02/11 15:56:40;;;;;;;10.82;8.20;;;;;;;;;;6154149;23;20047;-85
2022/02/11 15:59:06;;;;;;;11.77;8.63;;;;;;;;;;6210567;23;20388;-85
2022/02/11 16:01:32;;;;;;;19.00;13.15;;;;;;;;;;6210901;23;20024;-84
2022/02/11 16:03:59;;;;;;;17.33;10.40;;;;;;;;;;6183217;23;20108;-85
2022/02/11 16:06:25;;;;;;;10.98;8.70;;;;;;;;;;6164340;23;20518;-84
2022/02/11 16:08:51;;;;;;;11.65;8.82;;;;;;;;;;6199959;23;20067;-85
2022/02/11 16:11:17;;;;;;;14.55;10.13;;;;;;;;;;6181156;23;20024;-84
2022/02/11 16:13:42;;;;;;;13.45;10.15;;;;;;;;;;6182183;23;20078;-84
2022/02/11 16:16:08;;;;;;;15.20;9.80;;;;;;;;;;6183053;23;20070;-85
2022/02/11 16:18:34;;;;;;;14.13;10.88;;;;;;;;;;6181378;23;20024;-84
2022/02/11 16:21:00;;;;;;;16.90;12.60;;;;;;;;;;6157260;23;20232;-84
2022/02/11 16:23:27;;;;;;;21.52;14.50;;;;;;;;;;6180841;23;20393;-84
2022/02/11 16:26:02;;;;;;;17.35;13.43;;;;;;;;;;6156902;23;20398;-85
2022/02/11 16:28:27;;;;;;;16.50;13.50;;;;;;;;;;6157688;23;20071;-85
2022/02/11 16:30:53;;;;;;;19.85;13.70;;;;;;;;;;6142310;23;20032;-84
2022/02/11 16:33:22;;;;;;;21.50;12.95;;;;;;;;;;6200871;23;20020;-84
2022/02/11 16:35:51;;;;;;;16.60;12.23;;;;;;;;;;6180365;23;20379;-84
2022/02/11 16:38:17;;;;;;;15.25;10.15;;;;;;;;;;6179816;23;20490;-84
2022/02/11 16:40:43;;;;;;;12.30;8.27;;;;;;;;;;6154868;23;20019;-83
2022/02/11 16:43:10;;;;;;;13.02;8.63;;;;;;;;;;6178402;23;20331;-84
2022/02/11 16:45:36;;;;;;;12.73;9.05;;;;;;;;;;6178520;23;20024;-84
2022/02/11 16:48:02;;;;;;;12.60;8.85;;;;;;;;;;6179224;23;20112;-83
2022/02/11 16:50:28;;;;;;;11.15;9.00;;;;;;;;;;6153608;23;20022;-84
2022/02/11 16:52:53;;;;;;;13.32;8.60;;;;;;;;;;6178915;23;20017;-84
2022/02/11 16:55:19;;;;;;;9.80;8.75;;;;;;;;;;6181972;23;20072;-84
2022/02/11 16:57:45;;;;;;;11.25;9.20;;;;;;;;;;6181780;23;20024;-84
2022/02/11 17:00:11;;;;;;;11.40;9.77;;;;;;;;;;6178539;23;20024;-83
2022/02/11 17:02:38;;;;;;;12.52;9.45;;;;;;;;;;6152899;23;20094;-83
2022/02/11 17:05:04;;;;;;;14.48;11.20;;;;;;;;;;6178309;23;20031;-84
2022/02/11 17:07:30;;;;;;;16.00;10.45;;;;;;;;;;6179405;23;20458;-85
2022/02/11 17:09:56;;;;;;;10.80;9.40;;;;;;;;;;6179665;23;20454;-84
2022/02/11 17:12:24;;;;;;;11.88;9.75;;;;;;;;;;6205930;23;20024;-85
2022/02/11 17:14:51;;;;;;;13.10;10.75;;;;;;;;;;6179770;23;20020;-84
2022/02/11 17:17:17;;;;;;;13.82;9.98;;;;;;;;;;6180101;23;20016;-83
2022/02/11 17:19:43;;;;;;;14.35;9.48;;;;;;;;;;6179364;23;20009;-83
2022/02/11 17:22:10;;;;;;;13.52;9.88;;;;;;;;;;6155473;23;20124;-85
2022/02/11 17:24:36;;;;;;;14.13;10.07;;;;;;;;;;6207339;23;20044;-86
2022/02/11 17:27:02;;;;;;;15.90;11.15;;;;;;;;;;6153310;23;20024;-84
2022/02/11 17:29:28;;;;;;;14.52;11.15;;;;;;;;;;6153998;23;20031;-86
2022/02/11 17:31:54;;;;;;;15.88;11.73;;;;;;;;;;6153665;23;20021;-85
2022/02/11 17:34:19;;;;;;;12.57;10.85;;;;;;;;;;6179051;23;20104;-84
2022/02/11 17:36:47;;;;;;;16.20;10.80;;;;;;;;;;6154195;23;20032;-86
2022/02/11 17:39:13;;;;;;;13.95;10.55;;;;;;;;;;6188272;23;20038;-85
2022/02/11 17:41:39;;;;;;;15.85;11.00;;;;;;;;;;6177994;23;20024;-85
2022/02/11 17:44:05;;;;;;;14.00;11.23;;;;;;;;;;6167927;23;20012;-87
2022/02/11 17:46:34;;;;;;;23.10;16.15;;;;;;;;;;6179678;23;20076;-86
2022/02/11 17:49:00;;;;;;;19.15;14.20;;;;;;;;;;6164294;22;20023;-86
2022/02/11 17:51:26;;;;;;;16.67;11.98;;;;;;;;;;6156568;23;20397;-84
2022/02/11 17:53:53;;;;;;;15.93;13.27;;;;;;;;;;6180061;23;20024;-87
2022/02/11 17:56:19;;;;;;;20.17;16.00;;;;;;;;;;6190895;23;20012;-85
2022/02/11 17:58:50;;;;;;;21.27;15.10;;;;;;;;;;6160151;23;20031;-85
2022/02/11 18:01:21;;;;;;;17.50;13.07;;;;;;;;;;6217485;23;20024;-85
2022/02/11 18:03:46;;;;;;;17.85;13.57;;;;;;;;;;6143761;23;20026;-86
2022/02/11 18:06:12;;;;;;;18.52;15.65;;;;;;;;;;6217798;23;20024;-84
2022/02/11 18:08:38;;;;;;;21.65;15.13;;;;;;;;;;6148903;23;20394;-85
2022/02/11 18:11:05;;;;;;;21.77;12.75;;;;;;;;;;6157384;23;20020;-85
2022/02/11 18:13:31;;;;;;;15.65;12.00;;;;;;;;;;6157826;23;20039;-84
2022/02/11 18:15:57;;;;;;;18.65;13.40;;;;;;;;;;6180366;23;20470;-85